sensor_id;sensor_type;location;lat;lon;timestamp;temperature;humidity
40600;DHT22;26309;50.924;4.754;2023-07-08T00:00:15;18.80;99.90
40600;DHT22;26309;50.924;4.754;2023-07-08T00:02:42;18.70;99.90
40600;DHT22;26309;50.924;4.754;2023-07-08T00:05:10;18.70;99.90
40600;DHT22;26309;50.924;4.754;2023-07-08T00:07:37;18.60;99.90
40600;DHT22;26309;50.924;4.754;2023-07-08T00:10:22;18.60;99.90
40600;DHT22;26309;50.924;4.754;2023-07-08T00:12:51;18.60;99.90
40600;DHT22;26309;50.924;4.754;2023-07-08T00:15:17;18.50;99.90
40600;DHT22;26309;50.924;4.754;2023-07-08T00:17:44;18.60;99.90
40600;DHT22;26309;50.924;4.754;2023-07-08T00:22:57;18.60;99.90
40600;DHT22;26309;50.924;4.754;2023-07-08T00:25:26;18.50;99.90
40600;DHT22;26309;50.924;4.754;2023-07-08T00:27:52;18.50;99.90
40600;DHT22;26309;50.924;4.754;2023-07-08T00:30:22;18.40;99.90
40600;DHT22;26309;50.924;4.754;2023-07-08T00:32:48;18.30;99.90
40600;DHT22;26309;50.924;4.754;2023-07-08T00:35:33;18.40;99.90
40600;DHT22;26309;50.924;4.754;2023-07-08T00:38:00;18.20;99.90
40600;DHT22;26309;50.924;4.754;2023-07-08T00:40:29;18.00;99.90
40600;DHT22;26309;50.924;4.754;2023-07-08T00:42:56;18.00;99.90
40600;DHT22;26309;50.924;4.754;2023-07-08T00:48:08;17.90;99.90
40600;DHT22;26309;50.924;4.754;2023-07-08T00:50:36;17.70;99.90
40600;DHT22;26309;50.924;4.754;2023-07-08T00:55:46;17.60;99.90
40600;DHT22;26309;50.924;4.754;2023-07-08T00:58:12;17.70;99.90
40600;DHT22;26309;50.924;4.754;2023-07-08T01:00:38;17.70;99.90
40600;DHT22;26309;50.924;4.754;2023-07-08T01:03:04;17.70;99.90
40600;DHT22;26309;50.924;4.754;2023-07-08T01:05:30;17.80;99.90
40600;DHT22;26309;50.924;4.754;2023-07-08T01:08:02;17.80;99.90
40600;DHT22;26309;50.924;4.754;2023-07-08T01:10:34;17.80;99.90
40600;DHT22;26309;50.924;4.754;2023-07-08T01:13:04;17.80;99.90
40600;DHT22;26309;50.924;4.754;2023-07-08T01:15:37;17.80;99.90
40600;DHT22;26309;50.924;4.754;2023-07-08T01:18:06;17.70;99.90
40600;DHT22;26309;50.924;4.754;2023-07-08T01:20:32;17.70;99.90
40600;DHT22;26309;50.924;4.754;2023-07-08T01:22:59;17.70;99.90
40600;DHT22;26309;50.924;4.754;2023-07-08T01:25:26;17.60;99.90
40600;DHT22;26309;50.924;4.754;2023-07-08T01:27:56;17.60;99.90
40600;DHT22;26309;50.924;4.754;2023-07-08T01:30:23;17.60;99.90
40600;DHT22;26309;50.924;4.754;2023-07-08T01:32:54;17.50;99.90
40600;DHT22;26309;50.924;4.754;2023-07-08T01:35:22;17.50;99.90
40600;DHT22;26309;50.924;4.754;2023-07-08T01:37:59;17.30;99.90
40600;DHT22;26309;50.924;4.754;2023-07-08T01:40:30;17.50;99.90
40600;DHT22;26309;50.924;4.754;2023-07-08T01:42:57;17.30;99.90
40600;DHT22;26309;50.924;4.754;2023-07-08T01:45:32;17.20;99.90
40600;DHT22;26309;50.924;4.754;2023-07-08T01:48:02;17.30;99.90
40600;DHT22;26309;50.924;4.754;2023-07-08T01:50:30;17.30;99.90
40600;DHT22;26309;50.924;4.754;2023-07-08T01:52:59;17.30;99.90
40600;DHT22;26309;50.924;4.754;2023-07-08T01:55:27;17.40;99.90
40600;DHT22;26309;50.924;4.754;2023-07-08T01:57:54;17.30;99.90
40600;DHT22;26309;50.924;4.754;2023-07-08T02:00:21;17.30;99.90
40600;DHT22;26309;50.924;4.754;2023-07-08T02:02:49;17.20;99.90
40600;DHT22;26309;50.924;4.754;2023-07-08T02:05:15;17.30;99.90
40600;DHT22;26309;50.924;4.754;2023-07-08T02:07:41;17.30;99.90
40600;DHT22;26309;50.924;4.754;2023-07-08T02:10:08;17.40;99.90
40600;DHT22;26309;50.924;4.754;2023-07-08T02:12:34;17.40;99.90
40600;DHT22;26309;50.924;4.754;2023-07-08T02:15:00;17.40;99.90
40600;DHT22;26309;50.924;4.754;2023-07-08T02:17:27;17.40;99.90
40600;DHT22;26309;50.924;4.754;2023-07-08T02:19:56;17.10;99.90
40600;DHT22;26309;50.924;4.754;2023-07-08T02:22:22;16.90;99.90
40600;DHT22;26309;50.924;4.754;2023-07-08T02:24:48;17.00;99.90
40600;DHT22;26309;50.924;4.754;2023-07-08T02:27:14;17.00;99.90
40600;DHT22;26309;50.924;4.754;2023-07-08T02:29:40;17.10;99.90
40600;DHT22;26309;50.924;4.754;2023-07-08T02:32:08;17.10;99.90
40600;DHT22;26309;50.924;4.754;2023-07-08T02:34:36;17.00;99.90
40600;DHT22;26309;50.924;4.754;2023-07-08T02:37:02;16.90;99.90
40600;DHT22;26309;50.924;4.754;2023-07-08T02:39:29;16.80;99.90
40600;DHT22;26309;50.924;4.754;2023-07-08T02:41:55;16.40;99.90
40600;DHT22;26309;50.924;4.754;2023-07-08T02:44:20;16.30;99.90
40600;DHT22;26309;50.924;4.754;2023-07-08T02:46:46;16.40;99.90
40600;DHT22;26309;50.924;4.754;2023-07-08T02:49:12;16.50;99.90
40600;DHT22;26309;50.924;4.754;2023-07-08T02:51:38;16.60;99.90
40600;DHT22;26309;50.924;4.754;2023-07-08T02:54:04;16.80;99.90
40600;DHT22;26309;50.924;4.754;2023-07-08T02:56:30;16.70;99.90
40600;DHT22;26309;50.924;4.754;2023-07-08T02:58:56;16.60;99.90
40600;DHT22;26309;50.924;4.754;2023-07-08T03:01:22;16.50;99.90
40600;DHT22;26309;50.924;4.754;2023-07-08T03:03:49;16.70;99.90
40600;DHT22;26309;50.924;4.754;2023-07-08T03:06:16;16.90;99.90
40600;DHT22;26309;50.924;4.754;2023-07-08T03:08:42;16.90;99.90
40600;DHT22;26309;50.924;4.754;2023-07-08T03:11:08;16.90;99.90
40600;DHT22;26309;50.924;4.754;2023-07-08T03:13:37;16.90;99.90
40600;DHT22;26309;50.924;4.754;2023-07-08T03:16:03;16.90;99.90
40600;DHT22;26309;50.924;4.754;2023-07-08T03:18:39;16.80;99.90
40600;DHT22;26309;50.924;4.754;2023-07-08T03:21:13;16.80;99.90
40600;DHT22;26309;50.924;4.754;2023-07-08T03:23:39;16.80;99.90
40600;DHT22;26309;50.924;4.754;2023-07-08T03:26:05;16.80;99.90
40600;DHT22;26309;50.924;4.754;2023-07-08T03:28:31;16.60;99.90
40600;DHT22;26309;50.924;4.754;2023-07-08T03:30:57;16.60;99.90
40600;DHT22;26309;50.924;4.754;2023-07-08T03:33:23;16.50;99.90
40600;DHT22;26309;50.924;4.754;2023-07-08T03:35:49;16.60;99.90
40600;DHT22;26309;50.924;4.754;2023-07-08T03:38:16;16.70;99.90
40600;DHT22;26309;50.924;4.754;2023-07-08T03:40:42;16.70;99.90
40600;DHT22;26309;50.924;4.754;2023-07-08T03:43:08;16.90;99.90
40600;DHT22;26309;50.924;4.754;2023-07-08T03:45:34;16.90;99.90
40600;DHT22;26309;50.924;4.754;2023-07-08T03:48:01;16.80;99.90
40600;DHT22;26309;50.924;4.754;2023-07-08T03:50:28;16.90;99.90
40600;DHT22;26309;50.924;4.754;2023-07-08T03:52:55;16.80;99.90
40600;DHT22;26309;50.924;4.754;2023-07-08T03:55:21;16.70;99.90
40600;DHT22;26309;50.924;4.754;2023-07-08T03:57:47;16.70;99.90
40600;DHT22;26309;50.924;4.754;2023-07-08T04:00:13;16.70;99.90
40600;DHT22;26309;50.924;4.754;2023-07-08T04:02:41;16.70;99.90
40600;DHT22;26309;50.924;4.754;2023-07-08T04:05:14;16.70;99.90
40600;DHT22;26309;50.924;4.754;2023-07-08T04:07:41;16.60;99.90
40600;DHT22;26309;50.924;4.754;2023-07-08T04:10:08;16.70;99.90
40600;DHT22;26309;50.924;4.754;2023-07-08T04:12:34;16.80;99.90
40600;DHT22;26309;50.924;4.754;2023-07-08T04:15:00;16.70;99.90
40600;DHT22;26309;50.924;4.754;2023-07-08T04:17:26;16.80;99.90
40600;DHT22;26309;50.924;4.754;2023-07-08T04:19:51;16.80;99.90
40600;DHT22;26309;50.924;4.754;2023-07-08T04:22:17;16.90;99.90
40600;DHT22;26309;50.924;4.754;2023-07-08T04:24:44;17.00;99.90
40600;DHT22;26309;50.924;4.754;2023-07-08T04:27:14;17.30;99.90
40600;DHT22;26309;50.924;4.754;2023-07-08T04:29:41;17.40;99.90
40600;DHT22;26309;50.924;4.754;2023-07-08T04:32:07;17.50;99.90
40600;DHT22;26309;50.924;4.754;2023-07-08T04:34:33;17.50;99.90
40600;DHT22;26309;50.924;4.754;2023-07-08T04:36:59;17.60;99.90
40600;DHT22;26309;50.924;4.754;2023-07-08T04:39:25;17.70;99.90
40600;DHT22;26309;50.924;4.754;2023-07-08T04:41:51;17.70;99.90
40600;DHT22;26309;50.924;4.754;2023-07-08T04:44:17;17.70;99.90
40600;DHT22;26309;50.924;4.754;2023-07-08T04:46:50;17.70;99.90
40600;DHT22;26309;50.924;4.754;2023-07-08T04:49:19;17.70;99.90
40600;DHT22;26309;50.924;4.754;2023-07-08T04:51:45;17.80;99.90
40600;DHT22;26309;50.924;4.754;2023-07-08T04:54:21;18.00;99.90
40600;DHT22;26309;50.924;4.754;2023-07-08T04:57:02;18.40;99.90
40600;DHT22;26309;50.924;4.754;2023-07-08T04:59:36;19.00;99.90
40600;DHT22;26309;50.924;4.754;2023-07-08T05:02:02;19.70;99.90
40600;DHT22;26309;50.924;4.754;2023-07-08T05:04:27;20.40;99.90
40600;DHT22;26309;50.924;4.754;2023-07-08T05:06:53;20.90;99.90
40600;DHT22;26309;50.924;4.754;2023-07-08T05:09:19;21.50;99.90
40600;DHT22;26309;50.924;4.754;2023-07-08T05:11:48;22.10;99.90
40600;DHT22;26309;50.924;4.754;2023-07-08T05:14:14;22.30;99.90
40600;DHT22;26309;50.924;4.754;2023-07-08T05:16:40;22.60;99.90
40600;DHT22;26309;50.924;4.754;2023-07-08T05:19:06;22.80;99.90
40600;DHT22;26309;50.924;4.754;2023-07-08T05:21:32;22.90;99.90
40600;DHT22;26309;50.924;4.754;2023-07-08T05:24:02;23.20;99.90
40600;DHT22;26309;50.924;4.754;2023-07-08T05:26:28;23.50;99.90
40600;DHT22;26309;50.924;4.754;2023-07-08T05:28:55;23.90;99.90
40600;DHT22;26309;50.924;4.754;2023-07-08T05:31:21;24.00;99.90
40600;DHT22;26309;50.924;4.754;2023-07-08T05:33:47;24.20;99.90
40600;DHT22;26309;50.924;4.754;2023-07-08T05:36:13;24.40;99.90
40600;DHT22;26309;50.924;4.754;2023-07-08T05:38:41;24.70;99.50
40600;DHT22;26309;50.924;4.754;2023-07-08T05:41:07;24.80;99.50
40600;DHT22;26309;50.924;4.754;2023-07-08T05:43:33;24.80;98.80
40600;DHT22;26309;50.924;4.754;2023-07-08T05:46:00;24.90;98.40
40600;DHT22;26309;50.924;4.754;2023-07-08T05:48:26;25.00;98.30
40600;DHT22;26309;50.924;4.754;2023-07-08T05:50:52;25.30;97.70
40600;DHT22;26309;50.924;4.754;2023-07-08T05:53:19;25.40;97.60
40600;DHT22;26309;50.924;4.754;2023-07-08T05:55:49;25.60;97.30
40600;DHT22;26309;50.924;4.754;2023-07-08T05:58:15;25.80;95.60
40600;DHT22;26309;50.924;4.754;2023-07-08T06:00:42;25.90;96.70
40600;DHT22;26309;50.924;4.754;2023-07-08T06:03:09;25.90;95.40
40600;DHT22;26309;50.924;4.754;2023-07-08T06:05:37;26.00;95.70
40600;DHT22;26309;50.924;4.754;2023-07-08T06:08:06;26.00;96.30
40600;DHT22;26309;50.924;4.754;2023-07-08T06:10:33;26.10;95.10
40600;DHT22;26309;50.924;4.754;2023-07-08T06:12:59;26.40;95.40
40600;DHT22;26309;50.924;4.754;2023-07-08T06:15:25;26.70;94.50
40600;DHT22;26309;50.924;4.754;2023-07-08T06:17:51;26.70;93.60
40600;DHT22;26309;50.924;4.754;2023-07-08T06:20:16;26.70;94.00
40600;DHT22;26309;50.924;4.754;2023-07-08T06:22:42;26.70;93.70
40600;DHT22;26309;50.924;4.754;2023-07-08T06:25:08;26.60;93.90
40600;DHT22;26309;50.924;4.754;2023-07-08T06:27:34;26.30;93.20
40600;DHT22;26309;50.924;4.754;2023-07-08T06:30:00;26.40;93.60
40600;DHT22;26309;50.924;4.754;2023-07-08T06:32:26;26.20;93.70
40600;DHT22;26309;50.924;4.754;2023-07-08T06:34:52;26.20;93.50
40600;DHT22;26309;50.924;4.754;2023-07-08T06:37:18;26.30;93.80
40600;DHT22;26309;50.924;4.754;2023-07-08T06:39:44;26.30;94.90
40600;DHT22;26309;50.924;4.754;2023-07-08T06:42:10;26.20;95.10
40600;DHT22;26309;50.924;4.754;2023-07-08T06:44:35;26.00;94.70
40600;DHT22;26309;50.924;4.754;2023-07-08T06:47:03;25.90;94.60
40600;DHT22;26309;50.924;4.754;2023-07-08T06:49:29;25.90;94.90
40600;DHT22;26309;50.924;4.754;2023-07-08T06:51:55;26.00;95.50
40600;DHT22;26309;50.924;4.754;2023-07-08T06:54:25;26.00;96.00
40600;DHT22;26309;50.924;4.754;2023-07-08T06:56:53;25.90;95.80
40600;DHT22;26309;50.924;4.754;2023-07-08T06:59:19;26.00;94.60
40600;DHT22;26309;50.924;4.754;2023-07-08T07:01:45;26.10;94.30
40600;DHT22;26309;50.924;4.754;2023-07-08T07:04:11;26.00;93.90
40600;DHT22;26309;50.924;4.754;2023-07-08T07:06:36;25.80;94.80
40600;DHT22;26309;50.924;4.754;2023-07-08T07:09:02;25.70;95.00
40600;DHT22;26309;50.924;4.754;2023-07-08T07:11:28;25.70;95.80
40600;DHT22;26309;50.924;4.754;2023-07-08T07:13:54;25.80;95.70
40600;DHT22;26309;50.924;4.754;2023-07-08T07:16:20;25.60;95.80
40600;DHT22;26309;50.924;4.754;2023-07-08T07:18:46;25.70;96.30
40600;DHT22;26309;50.924;4.754;2023-07-08T07:21:12;25.70;96.60
40600;DHT22;26309;50.924;4.754;2023-07-08T07:23:38;25.80;97.60
40600;DHT22;26309;50.924;4.754;2023-07-08T07:26:04;25.90;97.40
40600;DHT22;26309;50.924;4.754;2023-07-08T07:28:30;26.10;96.30
40600;DHT22;26309;50.924;4.754;2023-07-08T07:30:59;26.30;95.10
40600;DHT22;26309;50.924;4.754;2023-07-08T07:33:26;26.40;95.70
40600;DHT22;26309;50.924;4.754;2023-07-08T07:35:52;26.60;96.80
40600;DHT22;26309;50.924;4.754;2023-07-08T07:38:18;26.70;95.90
40600;DHT22;26309;50.924;4.754;2023-07-08T07:40:44;26.90;95.60
40600;DHT22;26309;50.924;4.754;2023-07-08T07:43:11;26.90;95.30
40600;DHT22;26309;50.924;4.754;2023-07-08T07:45:36;26.90;94.80
40600;DHT22;26309;50.924;4.754;2023-07-08T07:48:03;27.10;96.00
40600;DHT22;26309;50.924;4.754;2023-07-08T07:50:30;27.10;96.30
40600;DHT22;26309;50.924;4.754;2023-07-08T07:52:56;27.30;94.60
40600;DHT22;26309;50.924;4.754;2023-07-08T07:55:23;27.40;94.90
40600;DHT22;26309;50.924;4.754;2023-07-08T07:57:48;27.40;92.90
40600;DHT22;26309;50.924;4.754;2023-07-08T08:00:15;27.70;92.70
40600;DHT22;26309;50.924;4.754;2023-07-08T08:02:41;28.00;92.60
40600;DHT22;26309;50.924;4.754;2023-07-08T08:05:10;28.20;94.10
40600;DHT22;26309;50.924;4.754;2023-07-08T08:07:36;28.50;90.90
40600;DHT22;26309;50.924;4.754;2023-07-08T08:10:03;28.30;92.00
40600;DHT22;26309;50.924;4.754;2023-07-08T08:12:29;28.30;92.50
40600;DHT22;26309;50.924;4.754;2023-07-08T08:14:58;28.50;90.10
40600;DHT22;26309;50.924;4.754;2023-07-08T08:17:24;28.40;91.40
40600;DHT22;26309;50.924;4.754;2023-07-08T08:19:50;28.60;91.30
40600;DHT22;26309;50.924;4.754;2023-07-08T08:22:16;28.80;91.50
40600;DHT22;26309;50.924;4.754;2023-07-08T08:24:42;28.80;90.90
40600;DHT22;26309;50.924;4.754;2023-07-08T08:27:07;28.80;85.00
40600;DHT22;26309;50.924;4.754;2023-07-08T08:29:34;29.10;89.70
40600;DHT22;26309;50.924;4.754;2023-07-08T08:31:59;29.40;93.50
40600;DHT22;26309;50.924;4.754;2023-07-08T08:34:28;29.60;89.00
40600;DHT22;26309;50.924;4.754;2023-07-08T08:36:54;29.70;72.30
40600;DHT22;26309;50.924;4.754;2023-07-08T08:39:21;30.00;79.00
40600;DHT22;26309;50.924;4.754;2023-07-08T08:41:50;30.10;73.60
40600;DHT22;26309;50.924;4.754;2023-07-08T08:44:25;30.50;70.00
40600;DHT22;26309;50.924;4.754;2023-07-08T08:49:57;30.70;70.10
40600;DHT22;26309;50.924;4.754;2023-07-08T08:52:26;30.80;69.50
40600;DHT22;26309;50.924;4.754;2023-07-08T08:54:51;30.90;68.70
40600;DHT22;26309;50.924;4.754;2023-07-08T08:59:56;30.80;70.50
40600;DHT22;26309;50.924;4.754;2023-07-08T09:05:06;30.70;70.70
40600;DHT22;26309;50.924;4.754;2023-07-08T09:10:55;31.00;71.10
40600;DHT22;26309;50.924;4.754;2023-07-08T09:13:29;31.20;69.80
40600;DHT22;26309;50.924;4.754;2023-07-08T09:24:53;31.40;65.50
40600;DHT22;26309;50.924;4.754;2023-07-08T09:27:20;31.30;67.70
40600;DHT22;26309;50.924;4.754;2023-07-08T09:29:46;31.20;65.90
40600;DHT22;26309;50.924;4.754;2023-07-08T09:32:16;31.30;67.90
40600;DHT22;26309;50.924;4.754;2023-07-08T09:34:51;31.50;63.90
40600;DHT22;26309;50.924;4.754;2023-07-08T09:37:33;31.60;68.40
40600;DHT22;26309;50.924;4.754;2023-07-08T09:40:04;31.70;67.80
40600;DHT22;26309;50.924;4.754;2023-07-08T09:42:37;32.00;65.50
40600;DHT22;26309;50.924;4.754;2023-07-08T09:45:12;32.00;64.70
40600;DHT22;26309;50.924;4.754;2023-07-08T09:47:38;31.80;64.50
40600;DHT22;26309;50.924;4.754;2023-07-08T09:50:31;31.90;63.70
40600;DHT22;26309;50.924;4.754;2023-07-08T09:53:01;31.60;63.50
40600;DHT22;26309;50.924;4.754;2023-07-08T09:55:27;31.50;63.40
40600;DHT22;26309;50.924;4.754;2023-07-08T09:57:56;31.70;63.40
40600;DHT22;26309;50.924;4.754;2023-07-08T10:00:39;31.90;65.50
40600;DHT22;26309;50.924;4.754;2023-07-08T10:03:27;32.00;66.50
40600;DHT22;26309;50.924;4.754;2023-07-08T10:05:56;31.90;65.90
40600;DHT22;26309;50.924;4.754;2023-07-08T10:08:25;31.70;66.80
40600;DHT22;26309;50.924;4.754;2023-07-08T10:11:27;31.20;65.70
40600;DHT22;26309;50.924;4.754;2023-07-08T10:14:04;31.50;67.70
40600;DHT22;26309;50.924;4.754;2023-07-08T10:16:33;31.60;68.80
40600;DHT22;26309;50.924;4.754;2023-07-08T10:18:59;31.50;66.00
40600;DHT22;26309;50.924;4.754;2023-07-08T10:27:08;32.30;63.80
40600;DHT22;26309;50.924;4.754;2023-07-08T10:29:47;32.20;62.60
40600;DHT22;26309;50.924;4.754;2023-07-08T10:35:27;32.20;62.90
40600;DHT22;26309;50.924;4.754;2023-07-08T10:37:58;32.00;64.60
40600;DHT22;26309;50.924;4.754;2023-07-08T10:40:58;32.00;62.10
40600;DHT22;26309;50.924;4.754;2023-07-08T10:54:44;32.40;61.30
40600;DHT22;26309;50.924;4.754;2023-07-08T10:57:33;32.60;61.80
40600;DHT22;26309;50.924;4.754;2023-07-08T11:05:37;32.20;59.80
40600;DHT22;26309;50.924;4.754;2023-07-08T11:08:27;32.20;60.00
40600;DHT22;26309;50.924;4.754;2023-07-08T11:11:12;32.20;59.00
40600;DHT22;26309;50.924;4.754;2023-07-08T11:13:46;32.40;58.90
40600;DHT22;26309;50.924;4.754;2023-07-08T11:16:51;32.50;58.70
40600;DHT22;26309;50.924;4.754;2023-07-08T11:19:17;32.60;61.20
40600;DHT22;26309;50.924;4.754;2023-07-08T11:21:50;32.40;59.40
40600;DHT22;26309;50.924;4.754;2023-07-08T11:24:38;32.40;59.40
40600;DHT22;26309;50.924;4.754;2023-07-08T11:29:44;33.10;57.70
40600;DHT22;26309;50.924;4.754;2023-07-08T11:32:17;33.40;57.10
40600;DHT22;26309;50.924;4.754;2023-07-08T11:34:46;33.70;57.30
40600;DHT22;26309;50.924;4.754;2023-07-08T11:37:14;33.80;57.10
40600;DHT22;26309;50.924;4.754;2023-07-08T11:39:43;34.00;57.20
40600;DHT22;26309;50.924;4.754;2023-07-08T11:44:57;34.40;52.90
40600;DHT22;26309;50.924;4.754;2023-07-08T11:47:41;34.20;54.10
40600;DHT22;26309;50.924;4.754;2023-07-08T11:50:44;33.70;54.10
40600;DHT22;26309;50.924;4.754;2023-07-08T11:55:59;33.90;55.30
40600;DHT22;26309;50.924;4.754;2023-07-08T11:58:28;34.20;56.70
40600;DHT22;26309;50.924;4.754;2023-07-08T12:03:40;34.00;54.50
40600;DHT22;26309;50.924;4.754;2023-07-08T12:08:57;33.70;54.80
40600;DHT22;26309;50.924;4.754;2023-07-08T12:11:32;33.50;55.40
40600;DHT22;26309;50.924;4.754;2023-07-08T12:14:00;33.70;55.20
40600;DHT22;26309;50.924;4.754;2023-07-08T12:16:29;33.90;57.40
40600;DHT22;26309;50.924;4.754;2023-07-08T12:18:55;33.90;55.10
40600;DHT22;26309;50.924;4.754;2023-07-08T12:21:24;33.80;56.20
40600;DHT22;26309;50.924;4.754;2023-07-08T12:23:52;33.70;55.60
40600;DHT22;26309;50.924;4.754;2023-07-08T12:26:18;33.90;57.00
40600;DHT22;26309;50.924;4.754;2023-07-08T12:28:44;34.10;57.60
40600;DHT22;26309;50.924;4.754;2023-07-08T12:31:16;34.20;56.50
40600;DHT22;26309;50.924;4.754;2023-07-08T12:33:44;34.30;55.80
40600;DHT22;26309;50.924;4.754;2023-07-08T12:36:20;34.40;55.20
40600;DHT22;26309;50.924;4.754;2023-07-08T12:38:48;34.70;54.10
40600;DHT22;26309;50.924;4.754;2023-07-08T12:41:24;35.00;53.60
40600;DHT22;26309;50.924;4.754;2023-07-08T12:43:51;35.30;54.20
40600;DHT22;26309;50.924;4.754;2023-07-08T12:46:20;35.30;52.50
40600;DHT22;26309;50.924;4.754;2023-07-08T12:48:46;35.60;53.80
40600;DHT22;26309;50.924;4.754;2023-07-08T12:51:20;35.70;53.10
40600;DHT22;26309;50.924;4.754;2023-07-08T12:53:47;35.60;53.70
40600;DHT22;26309;50.924;4.754;2023-07-08T12:56:14;35.10;53.80
40600;DHT22;26309;50.924;4.754;2023-07-08T12:58:42;34.90;56.00
40600;DHT22;26309;50.924;4.754;2023-07-08T13:01:15;34.70;55.40
40600;DHT22;26309;50.924;4.754;2023-07-08T13:03:44;34.60;60.40
40600;DHT22;26309;50.924;4.754;2023-07-08T13:06:16;34.50;61.60
40600;DHT22;26309;50.924;4.754;2023-07-08T13:08:43;34.20;63.70
40600;DHT22;26309;50.924;4.754;2023-07-08T13:11:13;33.40;59.60
40600;DHT22;26309;50.924;4.754;2023-07-08T13:13:59;32.90;61.00
40600;DHT22;26309;50.924;4.754;2023-07-08T13:16:33;32.20;59.60
40600;DHT22;26309;50.924;4.754;2023-07-08T13:19:00;31.60;60.20
40600;DHT22;26309;50.924;4.754;2023-07-08T13:21:27;31.30;59.60
40600;DHT22;26309;50.924;4.754;2023-07-08T13:23:57;31.00;59.00
40600;DHT22;26309;50.924;4.754;2023-07-08T13:26:26;30.80;61.20
40600;DHT22;26309;50.924;4.754;2023-07-08T13:29:00;30.80;64.20
40600;DHT22;26309;50.924;4.754;2023-07-08T13:31:33;30.60;63.00
40600;DHT22;26309;50.924;4.754;2023-07-08T13:34:08;30.60;64.20
40600;DHT22;26309;50.924;4.754;2023-07-08T13:36:39;30.50;62.00
40600;DHT22;26309;50.924;4.754;2023-07-08T13:39:12;30.40;59.50
40600;DHT22;26309;50.924;4.754;2023-07-08T13:41:42;30.20;64.30
40600;DHT22;26309;50.924;4.754;2023-07-08T13:44:09;30.10;64.40
40600;DHT22;26309;50.924;4.754;2023-07-08T13:46:45;30.10;63.40
40600;DHT22;26309;50.924;4.754;2023-07-08T13:49:30;29.90;63.30
40600;DHT22;26309;50.924;4.754;2023-07-08T13:54:45;30.20;70.20
40600;DHT22;26309;50.924;4.754;2023-07-08T13:57:17;30.40;73.00
40600;DHT22;26309;50.924;4.754;2023-07-08T13:59:44;30.50;70.90
40600;DHT22;26309;50.924;4.754;2023-07-08T14:02:19;30.60;66.70
40600;DHT22;26309;50.924;4.754;2023-07-08T14:04:47;30.70;71.30
40600;DHT22;26309;50.924;4.754;2023-07-08T14:07:19;30.80;73.00
40600;DHT22;26309;50.924;4.754;2023-07-08T14:09:48;31.00;72.20
40600;DHT22;26309;50.924;4.754;2023-07-08T14:12:14;31.00;70.40
40600;DHT22;26309;50.924;4.754;2023-07-08T14:14:40;31.00;74.00
40600;DHT22;26309;50.924;4.754;2023-07-08T14:17:11;30.70;75.80
40600;DHT22;26309;50.924;4.754;2023-07-08T14:19:37;30.60;74.30
40600;DHT22;26309;50.924;4.754;2023-07-08T14:24:39;30.20;74.20
40600;DHT22;26309;50.924;4.754;2023-07-08T14:27:08;30.20;75.80
40600;DHT22;26309;50.924;4.754;2023-07-08T14:29:41;30.40;74.60
40600;DHT22;26309;50.924;4.754;2023-07-08T14:32:15;30.60;73.30
40600;DHT22;26309;50.924;4.754;2023-07-08T14:34:54;30.90;70.90
40600;DHT22;26309;50.924;4.754;2023-07-08T14:37:20;31.20;72.40
40600;DHT22;26309;50.924;4.754;2023-07-08T14:39:46;31.70;68.60
40600;DHT22;26309;50.924;4.754;2023-07-08T14:42:14;32.30;63.90
40600;DHT22;26309;50.924;4.754;2023-07-08T14:44:41;33.00;63.20
40600;DHT22;26309;50.924;4.754;2023-07-08T14:47:13;33.30;65.70
40600;DHT22;26309;50.924;4.754;2023-07-08T14:49:40;33.50;62.50
40600;DHT22;26309;50.924;4.754;2023-07-08T14:52:07;33.60;63.70
40600;DHT22;26309;50.924;4.754;2023-07-08T14:54:34;33.80;63.30
40600;DHT22;26309;50.924;4.754;2023-07-08T14:57:00;34.70;61.20
40600;DHT22;26309;50.924;4.754;2023-07-08T14:59:30;35.90;59.50
40600;DHT22;26309;50.924;4.754;2023-07-08T15:01:58;37.30;56.90
40600;DHT22;26309;50.924;4.754;2023-07-08T15:04:25;38.60;54.20
40600;DHT22;26309;50.924;4.754;2023-07-08T15:06:52;39.60;52.30
40600;DHT22;26309;50.924;4.754;2023-07-08T15:09:19;40.60;50.50
40600;DHT22;26309;50.924;4.754;2023-07-08T15:11:46;41.30;46.30
40600;DHT22;26309;50.924;4.754;2023-07-08T15:14:22;42.40;44.10
40600;DHT22;26309;50.924;4.754;2023-07-08T15:16:50;42.80;40.00
40600;DHT22;26309;50.924;4.754;2023-07-08T15:19:19;42.90;41.00
40600;DHT22;26309;50.924;4.754;2023-07-08T15:21:45;43.00;37.20
40600;DHT22;26309;50.924;4.754;2023-07-08T15:24:13;43.50;36.10
40600;DHT22;26309;50.924;4.754;2023-07-08T15:26:42;44.00;34.40
40600;DHT22;26309;50.924;4.754;2023-07-08T15:29:15;44.40;37.80
40600;DHT22;26309;50.924;4.754;2023-07-08T15:31:41;44.20;38.20
40600;DHT22;26309;50.924;4.754;2023-07-08T15:34:14;44.40;37.40
40600;DHT22;26309;50.924;4.754;2023-07-08T15:36:41;44.50;35.50
40600;DHT22;26309;50.924;4.754;2023-07-08T15:39:06;44.40;38.20
40600;DHT22;26309;50.924;4.754;2023-07-08T15:41:33;44.50;38.40
40600;DHT22;26309;50.924;4.754;2023-07-08T15:43:59;44.90;37.00
40600;DHT22;26309;50.924;4.754;2023-07-08T15:46:34;45.00;38.60
40600;DHT22;26309;50.924;4.754;2023-07-08T15:49:01;43.70;36.60
40600;DHT22;26309;50.924;4.754;2023-07-08T15:51:27;43.00;36.80
40600;DHT22;26309;50.924;4.754;2023-07-08T15:53:54;43.40;37.70
40600;DHT22;26309;50.924;4.754;2023-07-08T15:56:21;44.20;35.90
40600;DHT22;26309;50.924;4.754;2023-07-08T15:58:48;45.00;35.40
40600;DHT22;26309;50.924;4.754;2023-07-08T16:01:24;45.70;35.00
40600;DHT22;26309;50.924;4.754;2023-07-08T16:03:50;46.20;32.90
40600;DHT22;26309;50.924;4.754;2023-07-08T16:06:17;46.30;35.40
40600;DHT22;26309;50.924;4.754;2023-07-08T16:08:44;46.30;36.10
40600;DHT22;26309;50.924;4.754;2023-07-08T16:11:41;45.60;33.80
40600;DHT22;26309;50.924;4.754;2023-07-08T16:14:12;45.80;33.70
40600;DHT22;26309;50.924;4.754;2023-07-08T16:16:39;45.80;33.50
40600;DHT22;26309;50.924;4.754;2023-07-08T16:19:07;45.60;32.60
40600;DHT22;26309;50.924;4.754;2023-07-08T16:21:33;45.60;33.00
40600;DHT22;26309;50.924;4.754;2023-07-08T16:23:59;45.50;34.60
40600;DHT22;26309;50.924;4.754;2023-07-08T16:26:25;45.40;34.10
40600;DHT22;26309;50.924;4.754;2023-07-08T16:28:53;45.60;33.20
40600;DHT22;26309;50.924;4.754;2023-07-08T16:31:20;45.80;33.60
40600;DHT22;26309;50.924;4.754;2023-07-08T16:33:47;45.30;35.90
40600;DHT22;26309;50.924;4.754;2023-07-08T16:36:22;44.90;34.40
40600;DHT22;26309;50.924;4.754;2023-07-08T16:38:48;44.60;35.80
40600;DHT22;26309;50.924;4.754;2023-07-08T16:41:16;44.40;37.40
40600;DHT22;26309;50.924;4.754;2023-07-08T16:43:42;44.40;36.80
40600;DHT22;26309;50.924;4.754;2023-07-08T16:46:09;43.60;38.50
40600;DHT22;26309;50.924;4.754;2023-07-08T16:48:36;43.00;38.10
40600;DHT22;26309;50.924;4.754;2023-07-08T16:51:03;42.60;40.30
40600;DHT22;26309;50.924;4.754;2023-07-08T16:53:49;42.90;38.00